Time;durP1;ratioP1;P1;durP2;ratioP2;P2;SDS_P1;SDS_P2;PMS_P1;PMS_P2;Temp;Humidity;BMP_temperature;BMP_pressure;BME280_temperature;BME280_humidity;BME280_pressure;Samples;Min_cycle;Max_cycle;Signal;HPM_P1;HPM_P2
2022/08/08 00:09:36;;;;;;;3.20;1.27;;;20.60;67.70;;;;;;6930608;28;20479;-91
2022/08/08 00:13:14;;;;;;;2.88;1.30;;;20.50;67.80;;;;;;6884706;28;20438;-91
2022/08/08 00:16:47;;;;;;;3.80;1.50;;;20.30;68.40;;;;;;6908165;28;20436;-89
2022/08/08 00:20:12;;;;;;;3.20;1.30;;;20.00;68.90;;;;;;6911200;28;20437;-92
2022/08/08 00:23:42;;;;;;;2.83;1.13;;;20.00;69.50;;;;;;6923611;28;20440;-91
2022/08/08 00:27:10;;;;;;;3.20;1.20;;;20.00;69.60;;;;;;6934237;28;20424;-91
2022/08/08 00:30:38;;;;;;;3.70;1.17;;;20.00;69.90;;;;;;6924323;28;20439;-92
2022/08/08 00:38:41;;;;;;;3.55;1.20;;;20.20;69.60;;;;;;6941354;28;20420;-91
2022/08/08 01:04:57;;;;;;;3.72;1.50;;;19.10;72.00;;;;;;6847631;28;20489;-89
2022/08/08 01:09:14;;;;;;;3.15;1.30;;;19.10;71.20;;;;;;6866633;28;20444;-89
2022/08/08 01:13:16;;;;;;;3.20;1.40;;;19.20;71.50;;;;;;6875682;28;20447;-90
2022/08/08 01:17:40;;;;;;;2.88;1.30;;;19.00;71.60;;;;;;6899617;28;20445;-93
2022/08/08 01:21:33;;;;;;;3.50;1.42;;;18.90;72.10;;;;;;6870780;28;20447;-88
2022/08/08 01:25:47;;;;;;;2.70;1.23;;;19.10;72.70;;;;;;6867813;28;20440;-85
2022/08/08 01:29:36;;;;;;;2.83;1.20;;;19.10;72.60;;;;;;6866973;28;20443;-86
2022/08/08 01:34:06;;;;;;;3.10;1.40;;;19.10;72.60;;;;;;6891530;28;20453;-87
2022/08/08 01:38:06;;;;;;;4.05;1.60;;;19.10;72.00;;;;;;6873012;28;20463;-89
2022/08/08 01:41:45;;;;;;;2.97;1.30;;;18.90;71.70;;;;;;6867722;28;20447;-87
2022/08/08 01:45:40;;;;;;;3.85;1.50;;;18.70;72.60;;;;;;6890367;28;20442;-87
2022/08/08 01:49:17;;;;;;;3.92;1.50;;;18.60;73.40;;;;;;6911472;28;20447;-88
2022/08/08 01:52:53;;;;;;;3.90;1.55;;;18.60;74.30;;;;;;6921077;28;20768;-87
2022/08/08 01:56:26;;;;;;;3.35;1.33;;;18.50;74.30;;;;;;6885218;28;20438;-87
2022/08/08 02:00:09;;;;;;;2.77;1.50;;;18.60;74.70;;;;;;6881087;28;20446;-88
2022/08/08 02:03:49;;;;;;;2.80;1.30;;;18.60;74.60;;;;;;6894723;28;20479;-89
2022/08/08 02:07:22;;;;;;;3.28;1.40;;;18.70;74.90;;;;;;6899906;28;20447;-85
2022/08/08 02:11:01;;;;;;;4.25;1.58;;;18.60;74.80;;;;;;6894362;28;20434;-86
2022/08/08 02:14:34;;;;;;;3.63;1.48;;;18.70;75.00;;;;;;6894948;28;20904;-89
2022/08/08 02:18:06;;;;;;;3.50;1.50;;;18.70;75.20;;;;;;6911298;28;20433;-88
2022/08/08 02:25:37;;;;;;;3.80;1.50;;;18.80;75.60;;;;;;6897058;28;20517;-90
2022/08/08 02:29:26;;;;;;;4.00;1.50;;;18.80;75.40;;;;;;6876996;28;20442;-88
2022/08/08 02:33:29;;;;;;;3.58;1.40;;;18.80;75.20;;;;;;6876985;28;20464;-88
2022/08/08 02:37:04;;;;;;;4.47;1.50;;;18.70;75.10;;;;;;6893517;28;20474;-91
2022/08/08 02:40:40;;;;;;;3.85;1.50;;;18.70;75.50;;;;;;6898038;28;20453;-89
2022/08/08 02:44:30;;;;;;;3.30;1.42;;;18.50;75.90;;;;;;6897342;28;20430;-87
2022/08/08 02:48:35;;;;;;;4.47;1.50;;;18.30;76.50;;;;;;6916960;28;20452;-89
2022/08/08 02:52:56;;;;;;;4.60;1.60;;;18.10;77.20;;;;;;6936630;28;20519;-90
2022/08/08 02:57:19;;;;;;;3.17;1.40;;;18.10;77.70;;;;;;6908579;28;20835;-87
2022/08/08 03:01:29;;;;;;;3.50;1.52;;;17.90;78.00;;;;;;6928859;28;20441;-86
2022/08/08 03:05:36;;;;;;;2.90;1.60;;;17.80;78.80;;;;;;6865843;28;20436;-84
2022/08/08 03:09:47;;;;;;;3.00;1.60;;;17.80;78.40;;;;;;6893556;28;20442;-84
2022/08/08 03:13:43;;;;;;;3.63;1.70;;;17.60;79.00;;;;;;6890254;28;20438;-85
2022/08/08 03:17:13;;;;;;;3.65;1.60;;;17.40;79.60;;;;;;6890275;28;20449;-86
2022/08/08 03:20:46;;;;;;;3.00;1.57;;;17.30;81.20;;;;;;6896151;28;20467;-86
2022/08/08 03:24:10;;;;;;;3.60;1.60;;;17.50;80.90;;;;;;6917984;28;20476;-84
2022/08/08 03:27:38;;;;;;;5.45;3.17;;;17.60;80.40;;;;;;6906453;28;20497;-88
2022/08/08 03:33:16;;;;;;;4.53;2.50;;;17.60;80.60;;;;;;6892993;28;20496;-88
2022/08/08 03:34:43;;;;;;;4.45;1.70;;;17.60;80.30;;;;;;6893617;28;20426;-91
2022/08/08 03:38:06;;;;;;;8.70;5.03;;;17.60;80.90;;;;;;6876152;28;20498;-89
2022/08/08 03:41:34;;;;;;;4.75;2.00;;;17.60;81.00;;;;;;6896693;28;20430;-88
2022/08/08 03:44:56;;;;;;;3.33;1.70;;;17.70;80.90;;;;;;6893410;28;20430;-91
2022/08/08 03:48:19;;;;;;;3.40;1.63;;;17.70;80.70;;;;;;6899817;28;20452;-91
2022/08/08 03:51:43;;;;;;;3.23;1.70;;;17.80;80.90;;;;;;6884553;28;20465;-91
2022/08/08 03:55:11;;;;;;;4.75;1.70;;;17.80;81.00;;;;;;6902914;28;20422;-92
2022/08/08 03:58:35;;;;;;;4.00;1.70;;;17.70;80.60;;;;;;6901563;28;20445;-94
2022/08/08 04:01:58;;;;;;;3.08;1.58;;;17.70;80.80;;;;;;6881831;28;20442;-92
2022/08/08 04:05:21;;;;;;;3.28;1.55;;;17.70;81.10;;;;;;6878039;28;20801;-93
2022/08/08 04:08:45;;;;;;;3.70;1.70;;;17.60;81.20;;;;;;6878032;28;20441;-92
2022/08/08 04:12:08;;;;;;;4.45;1.70;;;17.70;81.30;;;;;;6876406;28;20434;-93
2022/08/08 04:15:33;;;;;;;4.97;1.90;;;17.60;81.10;;;;;;6877322;28;20921;-91
2022/08/08 04:18:56;;;;;;;3.42;1.70;;;17.30;82.20;;;;;;6896741;28;20800;-91
2022/08/08 04:22:19;;;;;;;3.70;1.80;;;17.20;82.60;;;;;;6894367;28;20944;-93
2022/08/08 04:25:42;;;;;;;3.92;1.80;;;17.00;83.30;;;;;;6896621;28;20426;-93
2022/08/08 04:29:06;;;;;;;3.33;1.73;;;16.90;84.10;;;;;;6876363;28;20453;-92
2022/08/08 04:32:32;;;;;;;4.85;2.00;;;16.90;84.70;;;;;;6900444;28;20433;-94
2022/08/08 04:35:55;;;;;;;6.70;1.97;;;17.00;84.50;;;;;;6908745;28;20442;-89
2022/08/08 04:39:20;;;;;;;3.60;1.77;;;17.10;84.70;;;;;;6885274;28;20430;-93
2022/08/08 04:42:44;;;;;;;4.57;1.85;;;17.10;84.90;;;;;;6905179;28;20430;-88
2022/08/08 04:46:07;;;;;;;4.80;1.80;;;17.20;84.90;;;;;;6891054;28;20505;-91
2022/08/08 04:49:33;;;;;;;4.25;1.73;;;17.30;84.70;;;;;;6909152;28;20432;-91
2022/08/08 04:52:58;;;;;;;3.35;1.70;;;17.30;84.70;;;;;;6895248;28;20944;-92
2022/08/08 04:56:20;;;;;;;3.78;1.90;;;17.30;84.80;;;;;;6927326;28;20431;-93
2022/08/08 04:59:43;;;;;;;3.72;1.83;;;17.20;85.00;;;;;;6926567;28;20436;-91
2022/08/08 05:03:08;;;;;;;4.13;1.77;;;17.20;85.70;;;;;;6900941;28;20450;-91
2022/08/08 05:06:32;;;;;;;3.30;1.70;;;17.20;86.00;;;;;;6900113;28;20441;-91
2022/08/08 05:09:55;;;;;;;3.75;1.70;;;17.20;85.90;;;;;;6883987;28;20445;-91
2022/08/08 05:13:17;;;;;;;4.43;1.85;;;17.30;86.10;;;;;;6883751;28;20465;-91
2022/08/08 05:16:41;;;;;;;3.63;1.80;;;17.40;86.10;;;;;;6901211;28;20438;-91
2022/08/08 05:20:05;;;;;;;4.18;1.90;;;17.50;86.30;;;;;;6867746;28;20514;-90
2022/08/08 05:23:30;;;;;;;3.47;1.88;;;17.50;86.30;;;;;;6883958;28;20446;-91
2022/08/08 05:26:53;;;;;;;3.70;1.73;;;17.60;86.30;;;;;;6901141;28;20913;-92
2022/08/08 05:30:16;;;;;;;3.90;2.00;;;17.60;86.20;;;;;;6901806;28;20442;-92
2022/08/08 05:33:39;;;;;;;4.72;2.10;;;17.70;86.40;;;;;;6900649;28;20434;-91
2022/08/08 05:37:04;;;;;;;3.80;2.20;;;17.80;85.70;;;;;;6881569;28;20437;-91
2022/08/08 05:40:30;;;;;;;4.30;2.35;;;17.70;85.50;;;;;;6897230;28;20928;-93
2022/08/08 05:44:05;;;;;;;4.80;2.20;;;17.70;85.90;;;;;;6903533;28;20785;-89
2022/08/08 05:47:27;;;;;;;5.40;2.20;;;17.60;86.10;;;;;;6912817;28;20946;-91
2022/08/08 05:50:50;;;;;;;5.10;2.20;;;17.60;86.60;;;;;;6897033;28;20434;-92
2022/08/08 05:54:16;;;;;;;3.63;2.13;;;17.70;86.50;;;;;;6903836;28;20430;-91
2022/08/08 05:57:42;;;;;;;4.80;2.00;;;17.80;87.10;;;;;;6900783;28;20445;-92
2022/08/08 06:01:06;;;;;;;4.53;2.40;;;17.90;87.10;;;;;;6881863;28;20829;-92
2022/08/08 06:04:30;;;;;;;5.90;2.30;;;18.00;85.80;;;;;;6881412;28;20442;-93
2022/08/08 06:07:52;;;;;;;4.50;2.10;;;18.10;86.10;;;;;;6881415;28;20470;-91
2022/08/08 06:11:18;;;;;;;4.00;2.20;;;18.00;85.80;;;;;;6838626;28;20534;-91
2022/08/08 06:14:47;;;;;;;4.68;2.30;;;18.10;85.90;;;;;;6870922;28;20438;-90
2022/08/08 06:18:10;;;;;;;4.10;2.40;;;18.10;86.10;;;;;;6874413;28;20444;-92
2022/08/08 06:21:33;;;;;;;5.55;2.40;;;18.10;86.20;;;;;;6883835;28;20442;-92
2022/08/08 06:24:55;;;;;;;5.43;2.40;;;18.10;86.30;;;;;;6880269;28;20442;-89
2022/08/08 06:28:25;;;;;;;4.75;2.33;;;18.10;86.30;;;;;;6871895;28;20915;-78
2022/08/08 06:31:48;;;;;;;4.10;2.30;;;18.20;86.60;;;;;;6888196;28;20924;-77
2022/08/08 06:35:14;;;;;;;4.85;2.40;;;18.30;86.90;;;;;;6888390;28;20784;-77
2022/08/08 06:38:37;;;;;;;4.25;2.50;;;18.40;86.60;;;;;;6887935;28;20434;-78
2022/08/08 06:42:01;;;;;;;5.05;2.55;;;18.50;86.10;;;;;;6887531;28;20849;-77
2022/08/08 06:45:24;;;;;;;4.88;2.40;;;18.60;86.00;;;;;;6889369;28;20434;-76
2022/08/08 06:48:49;;;;;;;4.97;2.50;;;18.60;86.60;;;;;;6888477;28;20954;-77
2022/08/08 06:52:13;;;;;;;4.70;2.27;;;18.60;86.60;;;;;;6888007;28;20418;-78
2022/08/08 06:55:35;;;;;;;4.53;2.80;;;18.70;86.20;;;;;;6888008;28;20441;-77
2022/08/08 06:58:58;;;;;;;4.15;2.47;;;18.70;85.90;;;;;;6887718;28;20792;-76
2022/08/08 07:02:24;;;;;;;5.45;2.40;;;18.70;86.10;;;;;;6886982;28;20990;-76
2022/08/08 07:05:52;;;;;;;4.25;2.50;;;18.80;86.20;;;;;;6887455;28;20434;-77
2022/08/08 07:09:19;;;;;;;5.40;2.63;;;18.80;86.20;;;;;;6887669;28;20434;-78
2022/08/08 07:12:44;;;;;;;5.00;2.90;;;19.00;86.20;;;;;;6887473;28;20426;-78
2022/08/08 07:16:14;;;;;;;5.57;2.80;;;19.10;85.30;;;;;;6886992;28;20437;-77
2022/08/08 07:19:43;;;;;;;5.55;2.65;;;19.10;85.00;;;;;;6886997;28;20430;-78
2022/08/08 07:23:15;;;;;;;5.88;2.60;;;19.20;84.60;;;;;;6887254;28;20465;-78
2022/08/08 07:26:40;;;;;;;4.78;2.70;;;19.40;84.80;;;;;;6887261;28;20450;-79
2022/08/08 07:30:02;;;;;;;4.22;2.70;;;19.40;84.90;;;;;;6886838;28;20991;-79
2022/08/08 07:33:25;;;;;;;6.03;2.60;;;19.50;84.60;;;;;;6887038;28;20470;-78
2022/08/08 07:36:51;;;;;;;6.70;2.78;;;19.60;84.70;;;;;;6885399;28;20438;-78
2022/08/08 07:40:16;;;;;;;4.53;2.70;;;19.70;84.10;;;;;;6886796;28;20932;-77
2022/08/08 07:43:41;;;;;;;5.20;3.10;;;19.80;84.10;;;;;;6887077;28;20438;-77
2022/08/08 07:47:03;;;;;;;5.53;2.60;;;19.90;83.80;;;;;;6887092;28;20442;-76
2022/08/08 07:50:26;;;;;;;5.67;2.40;;;20.10;84.00;;;;;;6886294;28;20434;-79
2022/08/08 07:53:58;;;;;;;5.43;2.50;;;20.10;83.60;;;;;;6886699;28;20434;-77
2022/08/08 07:57:28;;;;;;;4.32;2.60;;;20.40;82.90;;;;;;6886800;28;20438;-79
2022/08/08 08:00:54;;;;;;;5.47;2.60;;;20.50;82.10;;;;;;6886479;28;20442;-77
2022/08/08 08:04:23;;;;;;;4.07;2.40;;;20.60;82.00;;;;;;6889515;28;20782;-78
2022/08/08 08:07:49;;;;;;;5.55;2.60;;;20.60;81.60;;;;;;6892112;28;20434;-78
2022/08/08 08:11:14;;;;;;;4.57;2.20;;;20.60;81.50;;;;;;6892284;28;20421;-79
2022/08/08 08:14:49;;;;;;;4.93;2.50;;;20.70;81.20;;;;;;6896240;28;20430;-77
2022/08/08 08:18:11;;;;;;;4.78;2.50;;;20.90;81.50;;;;;;6893425;28;20434;-76
2022/08/08 08:21:38;;;;;;;5.13;2.38;;;21.00;81.00;;;;;;6892188;28;20552;-79
2022/08/08 08:25:01;;;;;;;4.43;2.50;;;21.00;81.50;;;;;;6892208;28;20943;-77
2022/08/08 08:28:24;;;;;;;6.93;2.67;;;21.10;81.30;;;;;;6896670;28;20756;-77
2022/08/08 08:31:48;;;;;;;4.70;2.40;;;21.30;80.90;;;;;;6875974;28;20441;-76
2022/08/08 08:35:10;;;;;;;5.07;2.40;;;21.30;81.20;;;;;;6887794;28;20453;-77
2022/08/08 08:38:33;;;;;;;4.68;2.45;;;21.40;80.50;;;;;;6887850;28;20938;-78
2022/08/08 08:41:57;;;;;;;5.85;2.90;;;21.50;80.10;;;;;;6887888;28;20512;-79
2022/08/08 08:45:20;;;;;;;7.55;3.05;;;21.60;80.20;;;;;;6887755;28;20434;-78
2022/08/08 08:48:44;;;;;;;6.50;2.70;;;21.70;80.80;;;;;;6898317;28;20464;-78
2022/08/08 08:52:08;;;;;;;4.90;2.42;;;21.70;81.10;;;;;;6914080;28;20437;-77
2022/08/08 08:55:33;;;;;;;4.68;2.42;;;21.80;80.70;;;;;;6872075;28;20502;-77
2022/08/08 08:58:57;;;;;;;5.55;2.53;;;21.90;80.80;;;;;;6860764;28;20438;-76
2022/08/08 09:02:23;;;;;;;4.20;2.40;;;22.00;80.00;;;;;;6892085;28;20444;-77
2022/08/08 09:05:48;;;;;;;5.20;2.50;;;22.10;79.70;;;;;;6914705;28;20853;-76
2022/08/08 09:09:14;;;;;;;5.32;2.50;;;22.20;79.20;;;;;;6914546;28;20429;-78
2022/08/08 09:12:38;;;;;;;5.50;2.50;;;22.40;79.00;;;;;;6913940;28;20938;-76
2022/08/08 09:16:00;;;;;;;4.95;2.35;;;22.40;78.60;;;;;;6904619;28;20434;-77
2022/08/08 09:19:23;;;;;;;4.60;2.30;;;22.50;78.10;;;;;;6886660;28;20434;-77
2022/08/08 09:22:47;;;;;;;5.95;2.30;;;22.60;77.40;;;;;;6895282;28;20448;-77
2022/08/08 09:26:15;;;;;;;5.25;2.30;;;22.70;75.50;;;;;;6913691;28;20443;-77
2022/08/08 09:29:51;;;;;;;5.40;2.30;;;22.80;75.00;;;;;;6913482;28;20436;-76
2022/08/08 09:33:16;;;;;;;4.35;2.28;;;22.90;75.40;;;;;;6913149;28;20452;-77
2022/08/08 09:36:41;;;;;;;4.88;2.35;;;23.00;75.00;;;;;;6913858;28;20467;-78
2022/08/08 09:40:07;;;;;;;8.38;4.65;;;23.00;75.00;;;;;;6911680;28;20436;-77
2022/08/08 09:43:33;;;;;;;5.93;3.03;;;23.10;72.10;;;;;;6913507;28;20444;-76
2022/08/08 09:46:57;;;;;;;5.07;2.33;;;23.10;70.60;;;;;;6913602;28;20441;-79
2022/08/08 09:50:25;;;;;;;4.15;1.90;;;23.30;69.60;;;;;;6909274;28;20440;-78
2022/08/08 09:53:50;;;;;;;4.13;1.85;;;23.30;67.80;;;;;;6886868;28;20442;-79
2022/08/08 09:57:20;;;;;;;3.70;2.10;;;23.40;67.60;;;;;;6886305;28;20439;-80
2022/08/08 10:00:46;;;;;;;4.55;2.72;;;23.40;67.80;;;;;;6886037;28;20437;-79
2022/08/08 10:04:15;;;;;;;3.47;2.00;;;23.60;67.40;;;;;;6885736;28;20913;-78
2022/08/08 10:07:37;;;;;;;4.25;1.80;;;23.60;67.60;;;;;;6902836;28;20432;-80
2022/08/08 10:10:59;;;;;;;4.00;1.95;;;23.60;67.30;;;;;;6912938;28;20466;-78
2022/08/08 10:14:32;;;;;;;5.30;2.00;;;23.70;65.60;;;;;;6912515;28;20444;-79
2022/08/08 10:17:56;;;;;;;5.43;1.80;;;23.90;64.50;;;;;;6911351;28;20506;-79
2022/08/08 10:21:19;;;;;;;3.73;1.60;;;23.90;64.90;;;;;;6912395;28;20636;-78
2022/08/08 10:24:46;;;;;;;3.30;1.60;;;24.00;65.10;;;;;;6912536;28;20428;-75
2022/08/08 10:28:16;;;;;;;8.63;5.25;;;24.10;64.60;;;;;;6912483;28;20495;-80
2022/08/08 10:35:25;;;;;;;4.87;1.77;;;24.20;64.10;;;;;;6910430;28;20432;-77
2022/08/08 10:38:47;;;;;;;4.82;1.83;;;24.30;63.70;;;;;;6911586;28;20500;-79
2022/08/08 10:42:11;;;;;;;4.32;1.83;;;24.40;62.80;;;;;;6912888;28;20448;-77
2022/08/08 10:45:42;;;;;;;4.10;1.80;;;24.50;62.90;;;;;;6911594;28;20478;-78
2022/08/08 10:49:06;;;;;;;3.80;1.70;;;24.50;63.10;;;;;;6909546;28;20493;-76
2022/08/08 10:52:30;;;;;;;4.25;1.80;;;24.50;62.90;;;;;;6909475;28;20488;-79
2022/08/08 10:55:58;;;;;;;3.92;1.77;;;24.60;63.30;;;;;;6911353;28;20480;-78
2022/08/08 10:59:20;;;;;;;3.55;1.50;;;24.60;63.40;;;;;;6911530;28;20428;-78
2022/08/08 11:02:42;;;;;;;3.73;1.50;;;24.80;60.80;;;;;;6903327;28;20970;-77
2022/08/08 11:06:07;;;;;;;3.22;1.58;;;25.00;61.50;;;;;;6892366;28;20441;-79
2022/08/08 11:09:29;;;;;;;4.70;1.60;;;25.10;58.70;;;;;;6887076;28;20496;-77
2022/08/08 11:12:55;;;;;;;3.72;1.40;;;25.30;59.50;;;;;;6895603;28;20437;-79
2022/08/08 11:16:23;;;;;;;5.80;1.70;;;25.40;58.60;;;;;;6904734;28;20449;-80
2022/08/08 11:19:45;;;;;;;3.90;1.60;;;25.40;58.50;;;;;;6883849;28;20478;-76
2022/08/08 11:23:10;;;;;;;4.80;2.95;;;25.40;58.80;;;;;;6883957;28;20565;-77
2022/08/08 11:26:37;;;;;;;4.22;1.60;;;25.50;59.70;;;;;;6883493;28;20877;-77
2022/08/08 11:30:01;;;;;;;3.53;1.42;;;25.60;57.90;;;;;;6883594;28;20428;-75
2022/08/08 11:33:24;;;;;;;3.95;1.50;;;25.60;57.60;;;;;;6885046;28;20435;-77
2022/08/08 11:36:47;;;;;;;5.90;1.53;;;25.60;56.70;;;;;;6883732;28;20502;-77
2022/08/08 11:40:13;;;;;;;3.08;1.52;;;25.60;56.00;;;;;;6883269;28;20462;-75
2022/08/08 11:43:37;;;;;;;3.42;1.40;;;25.70;55.00;;;;;;6883306;28;20477;-76
2022/08/08 11:47:00;;;;;;;4.20;1.63;;;25.90;55.80;;;;;;6895703;28;20435;-75
2022/08/08 11:50:23;;;;;;;4.30;1.57;;;26.00;56.00;;;;;;6881104;28;20430;-77
2022/08/08 11:53:46;;;;;;;3.58;1.67;;;26.20;56.10;;;;;;6882971;28;20916;-74
2022/08/08 11:57:12;;;;;;;3.90;1.58;;;26.10;56.60;;;;;;6883065;28;20485;-77
2022/08/08 12:00:42;;;;;;;4.13;1.70;;;26.10;56.50;;;;;;6883458;28;20474;-77
2022/08/08 12:04:06;;;;;;;5.22;1.77;;;26.20;56.40;;;;;;6883368;28;20549;-76
2022/08/08 12:07:28;;;;;;;4.00;1.80;;;26.40;56.60;;;;;;6883328;28;20474;-77
2022/08/08 12:10:52;;;;;;;3.53;1.53;;;26.40;56.00;;;;;;6882850;28;20430;-75
2022/08/08 12:14:23;;;;;;;3.53;1.63;;;26.30;56.70;;;;;;6882332;28;20434;-75
2022/08/08 12:17:45;;;;;;;3.28;1.60;;;26.30;56.10;;;;;;6882791;28;20437;-77
2022/08/08 12:21:21;;;;;;;20.02;2.45;;;26.30;56.20;;;;;;6882695;28;20434;-78
2022/08/08 12:24:48;;;;;;;7.05;1.67;;;26.40;56.40;;;;;;6882433;28;20470;-74
2022/08/08 12:28:13;;;;;;;3.92;1.60;;;26.70;56.40;;;;;;6882301;28;20430;-73
2022/08/08 12:31:37;;;;;;;4.33;1.40;;;26.80;55.20;;;;;;6882665;28;20488;-76
2022/08/08 12:35:03;;;;;;;4.45;1.60;;;26.90;55.10;;;;;;6882623;28;20940;-80
2022/08/08 12:38:25;;;;;;;3.78;1.60;;;27.00;54.00;;;;;;6882258;28;20438;-87
2022/08/08 12:41:57;;;;;;;4.35;1.83;;;27.10;53.30;;;;;;6882729;28;20442;-75
2022/08/08 12:45:20;;;;;;;3.03;1.30;;;27.10;53.40;;;;;;6882784;28;20473;-76
2022/08/08 12:48:54;;;;;;;3.20;1.30;;;27.30;52.90;;;;;;6892945;28;20439;-77
2022/08/08 12:52:21;;;;;;;3.72;1.65;;;27.40;52.80;;;;;;6885766;28;20477;-75
2022/08/08 12:55:56;;;;;;;5.65;2.10;;;27.50;52.20;;;;;;6887637;28;20438;-79
2022/08/08 12:59:22;;;;;;;3.40;1.52;;;27.80;52.40;;;;;;6887672;28;20474;-77
2022/08/08 13:02:44;;;;;;;3.38;1.20;;;27.90;51.60;;;;;;6887209;28;20450;-78
2022/08/08 13:06:10;;;;;;;5.57;1.20;;;28.00;51.30;;;;;;6908548;28;20436;-79
2022/08/08 13:09:39;;;;;;;3.77;1.30;;;28.00;51.60;;;;;;6907004;28;20549;-78
2022/08/08 13:13:02;;;;;;;3.40;1.40;;;28.10;51.10;;;;;;6887635;28;20485;-77
2022/08/08 13:16:25;;;;;;;3.83;1.25;;;28.20;50.50;;;;;;6886821;28;20457;-77
2022/08/08 13:19:48;;;;;;;4.13;1.30;;;28.30;50.40;;;;;;6900693;28;21326;-76
2022/08/08 13:23:18;;;;;;;3.17;1.33;;;28.10;49.50;;;;;;6916615;28;20433;-83
2022/08/08 13:26:40;;;;;;;3.27;1.30;;;28.10;49.70;;;;;;6914291;28;20428;-80
2022/08/08 13:30:06;;;;;;;3.53;1.30;;;28.20;49.80;;;;;;6915468;28;20794;-80
2022/08/08 13:33:28;;;;;;;2.58;1.23;;;28.40;50.00;;;;;;6914762;28;20480;-82
2022/08/08 13:36:52;;;;;;;3.28;1.10;;;28.60;49.10;;;;;;6905879;28;20472;-81
2022/08/08 13:40:17;;;;;;;3.90;1.20;;;28.90;49.00;;;;;;6899808;28;20481;-80
2022/08/08 13:43:39;;;;;;;2.78;1.20;;;28.60;47.90;;;;;;6898233;28;20472;-80
2022/08/08 13:47:03;;;;;;;2.50;1.17;;;28.80;48.10;;;;;;6908828;28;20441;-80
2022/08/08 13:50:27;;;;;;;3.67;1.25;;;28.70;47.70;;;;;;6889940;28;20529;-82
2022/08/08 13:53:54;;;;;;;4.78;1.20;;;29.00;48.40;;;;;;6884644;28;20646;-80
2022/08/08 13:57:17;;;;;;;3.42;1.15;;;29.10;47.50;;;;;;6880344;28;20438;-78
2022/08/08 14:00:41;;;;;;;2.95;1.10;;;28.90;46.90;;;;;;6904737;28;20446;-79
2022/08/08 14:04:03;;;;;;;3.28;1.20;;;28.90;46.80;;;;;;6911391;28;20450;-78
2022/08/08 14:07:29;;;;;;;2.70;1.08;;;29.20;47.50;;;;;;6891501;28;20443;-79
2022/08/08 14:10:51;;;;;;;3.40;1.30;;;29.30;47.10;;;;;;6887671;28;20438;-77
2022/08/08 14:14:15;;;;;;;2.85;1.20;;;29.60;46.50;;;;;;6885655;28;20855;-77
2022/08/08 14:17:37;;;;;;;4.80;1.20;;;29.60;46.40;;;;;;6884257;28;20521;-77
2022/08/08 14:21:05;;;;;;;3.88;1.20;;;29.70;45.90;;;;;;6885818;28;20442;-78
2022/08/08 14:24:31;;;;;;;3.05;1.30;;;29.60;46.10;;;;;;6894293;28;20446;-79
2022/08/08 14:27:53;;;;;;;4.35;1.30;;;29.50;46.40;;;;;;6904508;28;20438;-79
2022/08/08 14:31:16;;;;;;;5.38;3.05;;;29.60;45.10;;;;;;6910861;28;20481;-78
2022/08/08 14:34:39;;;;;;;3.78;1.30;;;29.60;45.80;;;;;;6896842;28;20921;-79
2022/08/08 14:38:05;;;;;;;4.65;1.17;;;29.80;45.20;;;;;;6883853;28;20445;-79
2022/08/08 14:41:28;;;;;;;3.72;1.27;;;30.00;44.40;;;;;;6883873;28;20442;-80
2022/08/08 14:44:59;;;;;;;2.78;1.10;;;30.20;43.90;;;;;;6897440;28;20456;-78
2022/08/08 14:48:23;;;;;;;3.45;1.00;;;30.30;43.10;;;;;;6882492;28;20465;-78
2022/08/08 14:51:45;;;;;;;4.15;1.15;;;30.40;43.60;;;;;;6883601;28;20442;-79
2022/08/08 14:55:08;;;;;;;3.38;1.10;;;30.60;43.10;;;;;;6880224;28;20480;-78
2022/08/08 14:58:30;;;;;;;3.60;1.10;;;30.50;43.00;;;;;;6876579;28;20956;-78
2022/08/08 15:01:52;;;;;;;2.88;1.10;;;30.50;43.00;;;;;;6879208;28;20466;-78
2022/08/08 15:05:18;;;;;;;3.95;1.10;;;30.60;43.20;;;;;;6882420;28;20446;-80
2022/08/08 15:08:40;;;;;;;2.97;1.20;;;30.80;43.20;;;;;;6884158;28;20442;-83
2022/08/08 15:12:02;;;;;;;3.35;1.00;;;30.80;42.70;;;;;;6871303;28;20797;-84
2022/08/08 15:15:26;;;;;;;3.42;1.10;;;30.90;42.90;;;;;;6885248;28;20450;-84
2022/08/08 15:18:48;;;;;;;4.07;1.10;;;31.00;42.70;;;;;;6888416;28;20434;-84
2022/08/08 15:22:13;;;;;;;4.65;1.20;;;31.10;42.70;;;;;;6886640;28;20919;-85
2022/08/08 15:25:35;;;;;;;3.10;1.00;;;31.10;42.80;;;;;;6884912;28;20909;-85
2022/08/08 15:28:57;;;;;;;2.47;1.02;;;31.10;42.40;;;;;;6865862;28;20461;-77
2022/08/08 15:32:21;;;;;;;3.20;1.20;;;31.20;46.40;;;;;;6882446;28;20446;-80
2022/08/08 15:35:43;;;;;;;2.55;1.02;;;31.00;43.70;;;;;;6881580;28;20489;-76
2022/08/08 15:39:06;;;;;;;6.68;3.10;;;31.00;43.70;;;;;;6883006;28;20473;-81
2022/08/08 15:42:28;;;;;;;4.68;1.50;;;31.20;42.80;;;;;;6883422;28;20457;-81
2022/08/08 15:45:50;;;;;;;2.63;1.10;;;31.20;42.90;;;;;;6883254;28;20446;-80
2022/08/08 15:49:13;;;;;;;3.50;1.00;;;31.20;43.20;;;;;;6879194;28;20485;-82
2022/08/08 15:52:35;;;;;;;2.78;1.10;;;31.20;42.70;;;;;;6883677;28;20473;-82
2022/08/08 15:55:59;;;;;;;4.20;2.25;;;31.30;43.00;;;;;;6886804;28;20793;-84
2022/08/08 15:59:21;;;;;;;4.50;2.40;;;31.30;42.60;;;;;;6868856;28;20477;-85
2022/08/08 16:02:45;;;;;;;4.20;1.40;;;31.50;42.40;;;;;;6886605;28;20443;-83
2022/08/08 16:06:07;;;;;;;3.03;1.10;;;31.60;42.40;;;;;;6886710;28;20446;-84
2022/08/08 16:09:31;;;;;;;3.38;1.30;;;31.60;42.30;;;;;;6885521;28;20438;-84
2022/08/08 16:12:54;;;;;;;2.97;0.95;;;31.50;42.60;;;;;;6886035;28;20445;-80
2022/08/08 16:16:16;;;;;;;2.90;1.00;;;31.60;42.10;;;;;;6864429;28;20453;-77
2022/08/08 16:19:38;;;;;;;1.92;1.00;;;31.70;41.90;;;;;;6882579;28;20466;-75
2022/08/08 16:23:01;;;;;;;2.85;1.20;;;31.70;41.70;;;;;;6882668;28;20453;-75
2022/08/08 16:26:24;;;;;;;3.83;1.13;;;31.70;42.90;;;;;;6886950;28;20778;-75
2022/08/08 16:29:48;;;;;;;3.83;1.27;;;31.60;41.70;;;;;;6886308;28;20438;-74
2022/08/08 16:33:10;;;;;;;3.28;1.08;;;32.10;41.30;;;;;;6905190;28;20471;-76
2022/08/08 16:36:32;;;;;;;4.18;1.60;;;32.00;41.80;;;;;;6901173;28;20530;-74
2022/08/08 16:39:54;;;;;;;3.65;1.50;;;32.10;41.40;;;;;;6914624;28;20440;-74
2022/08/08 16:43:16;;;;;;;3.58;1.30;;;32.10;44.60;;;;;;6907517;28;20469;-75
2022/08/08 16:46:39;;;;;;;4.22;1.30;;;31.80;42.50;;;;;;6884886;28;20895;-74
2022/08/08 16:50:05;;;;;;;3.10;1.20;;;31.80;42.90;;;;;;6907926;28;20443;-81
2022/08/08 16:53:28;;;;;;;3.15;1.50;;;32.00;41.80;;;;;;6916259;28;20437;-81
2022/08/08 16:56:50;;;;;;;3.78;1.40;;;32.00;41.70;;;;;;6886817;28;20476;-81
2022/08/08 17:00:15;;;;;;;3.15;1.00;;;32.00;41.50;;;;;;6890407;28;20933;-82
2022/08/08 17:03:54;;;;;;;3.90;1.17;;;32.00;41.30;;;;;;6886647;28;20485;-81
2022/08/08 17:07:19;;;;;;;3.83;1.10;;;31.80;41.30;;;;;;6878067;28;20434;-82
2022/08/08 17:10:44;;;;;;;3.78;1.10;;;31.90;41.30;;;;;;6885875;28;20988;-81
2022/08/08 17:14:09;;;;;;;3.47;1.00;;;32.00;41.10;;;;;;6890958;28;20444;-81
2022/08/08 17:17:31;;;;;;;2.15;1.00;;;32.00;40.80;;;;;;6901357;28;20436;-81
2022/08/08 17:20:56;;;;;;;3.45;1.00;;;32.00;40.30;;;;;;6912005;28;20428;-80
2022/08/08 17:24:18;;;;;;;3.40;1.10;;;31.90;41.40;;;;;;6905662;28;20459;-82
2022/08/08 17:27:42;;;;;;;3.75;1.10;;;31.80;42.60;;;;;;6894207;28;20444;-80
2022/08/08 17:31:05;;;;;;;3.00;1.10;;;31.80;41.90;;;;;;6883720;28;20446;-80
2022/08/08 17:34:28;;;;;;;3.33;1.20;;;31.80;42.10;;;;;;6907272;28;20439;-79
2022/08/08 17:37:51;;;;;;;4.65;1.70;;;31.40;40.70;;;;;;6898328;28;20450;-81
2022/08/08 17:41:14;;;;;;;3.90;1.60;;;31.30;44.20;;;;;;6892072;28;20444;-82
2022/08/08 17:44:36;;;;;;;3.15;1.02;;;31.20;42.40;;;;;;6902783;28;20497;-81
2022/08/08 17:47:58;;;;;;;4.45;1.30;;;31.20;41.70;;;;;;6904436;28;20445;-81
2022/08/08 17:51:20;;;;;;;3.40;1.10;;;30.90;43.80;;;;;;6913430;28;20440;-81
2022/08/08 17:54:44;;;;;;;4.55;1.00;;;31.10;42.10;;;;;;6910051;28;20504;-81
2022/08/08 17:58:06;;;;;;;2.87;1.17;;;31.00;41.20;;;;;;6888778;28;20438;-82
2022/08/08 18:01:47;;;;;;;3.60;1.30;;;30.90;41.70;;;;;;6901949;28;20441;-83
2022/08/08 18:05:09;;;;;;;3.33;1.30;;;30.80;42.30;;;;;;6913224;28;20468;-83
2022/08/08 18:08:39;;;;;;;2.50;1.20;;;31.00;43.60;;;;;;6912283;28;20459;-82
2022/08/08 18:12:10;;;;;;;2.53;1.02;;;31.00;43.60;;;;;;6898060;28;20464;-80
2022/08/08 18:15:34;;;;;;;2.88;1.20;;;30.90;44.00;;;;;;6893890;28;20438;-81
2022/08/08 18:18:57;;;;;;;2.58;1.00;;;30.80;44.60;;;;;;6886312;28;20450;-82
2022/08/08 18:22:20;;;;;;;2.90;0.97;;;30.80;44.70;;;;;;6901224;28;20423;-80
2022/08/08 18:25:42;;;;;;;3.20;1.10;;;30.80;45.00;;;;;;6912587;28;20453;-83
2022/08/08 18:29:07;;;;;;;2.90;1.03;;;30.40;45.50;;;;;;6894790;28;20443;-82
2022/08/08 18:32:29;;;;;;;4.85;1.10;;;30.40;47.00;;;;;;6903982;28;20939;-79
2022/08/08 18:35:51;;;;;;;3.25;1.00;;;30.30;46.30;;;;;;6911398;28;20467;-82
2022/08/08 18:39:13;;;;;;;3.45;1.10;;;30.20;47.90;;;;;;6911009;28;20437;-82
2022/08/08 18:42:36;;;;;;;4.22;1.00;;;30.00;46.40;;;;;;6903353;28;20441;-80
2022/08/08 18:45:59;;;;;;;3.20;0.93;;;29.80;46.30;;;;;;6881460;28;20924;-80